Time;durP1;ratioP1;P1;durP2;ratioP2;P2;SDS_P1;SDS_P2;PMS_P1;PMS_P2;Temp;Humidity;BMP_temperature;BMP_pressure;BME280_temperature;BME280_humidity;BME280_pressure;Samples;Min_cycle;Max_cycle;Signal;HPM_P1;HPM_P2
2022/08/17 00:00:39;;;;;;;19.70;16.35;;;17.60;99.90;;;;;;5093231;28;20130;-77
2022/08/17 00:03:10;;;;;;;19.08;16.55;;;17.60;99.90;;;;;;5093195;28;20102;-77
2022/08/17 00:05:40;;;;;;;21.75;16.98;;;17.60;99.90;;;;;;5093228;28;20154;-77
2022/08/17 00:08:07;;;;;;;20.55;16.83;;;17.50;99.90;;;;;;5091801;28;20386;-77
2022/08/17 00:10:33;;;;;;;24.08;17.70;;;17.50;99.90;;;;;;5093254;28;20059;-77
2022/08/17 00:13:03;;;;;;;21.35;17.02;;;17.50;99.90;;;;;;5093264;28;20032;-77
2022/08/17 00:15:28;;;;;;;20.90;16.23;;;17.50;99.90;;;;;;5093378;28;20035;-77
2022/08/17 00:17:54;;;;;;;21.20;16.75;;;17.50;99.90;;;;;;5091680;28;20478;-77
2022/08/17 00:20:20;;;;;;;22.50;15.93;;;17.40;99.90;;;;;;5093025;28;20042;-77
2022/08/17 00:22:46;;;;;;;22.02;17.40;;;17.40;99.90;;;;;;5091653;28;20026;-77
2022/08/17 00:25:16;;;;;;;19.45;15.68;;;17.40;99.90;;;;;;5093251;28;20469;-78
2022/08/17 00:27:42;;;;;;;20.85;15.43;;;17.30;99.90;;;;;;5091719;28;20028;-78
2022/08/17 00:30:10;;;;;;;20.90;17.25;;;17.30;99.90;;;;;;5091768;28;20016;-78
2022/08/17 00:32:38;;;;;;;20.55;15.27;;;17.30;99.90;;;;;;5091412;28;20020;-78
2022/08/17 00:35:06;;;;;;;20.63;15.82;;;17.30;99.90;;;;;;5093046;28;20048;-78
2022/08/17 00:37:32;;;;;;;18.35;15.73;;;17.30;99.90;;;;;;5092671;28;20063;-78
2022/08/17 00:39:58;;;;;;;19.38;15.07;;;17.30;99.90;;;;;;5095243;28;20051;-78
2022/08/17 00:42:23;;;;;;;19.50;15.57;;;17.30;99.90;;;;;;5095687;28;20365;-78
2022/08/17 00:44:49;;;;;;;20.73;15.35;;;17.30;99.90;;;;;;5096937;28;20422;-78
2022/08/17 00:47:14;;;;;;;19.27;14.65;;;17.30;99.90;;;;;;5096735;28;20103;-78
2022/08/17 00:49:40;;;;;;;17.10;13.73;;;17.30;99.90;;;;;;5096874;28;20071;-78
2022/08/17 00:52:17;;;;;;;19.73;14.75;;;17.30;99.90;;;;;;5096924;28;20027;-78
2022/08/17 00:54:48;;;;;;;19.13;15.27;;;17.30;99.90;;;;;;5096798;28;20028;-77
2022/08/17 00:57:22;;;;;;;20.42;14.55;;;17.20;99.90;;;;;;5096563;28;20111;-77
2022/08/17 00:59:52;;;;;;;18.90;14.43;;;17.20;99.90;;;;;;5095466;28;20515;-77
2022/08/17 01:02:19;;;;;;;17.70;14.45;;;17.10;99.90;;;;;;5096676;28;20027;-77
2022/08/17 01:04:48;;;;;;;18.48;13.80;;;17.10;99.90;;;;;;5096769;28;20028;-77
2022/08/17 01:07:15;;;;;;;14.07;11.27;;;17.10;99.90;;;;;;5096429;28;20070;-77
2022/08/17 01:09:42;;;;;;;11.75;10.57;;;17.10;99.90;;;;;;5095397;28;20024;-77
2022/08/17 01:12:10;;;;;;;15.57;12.05;;;17.00;99.90;;;;;;5096549;28;20024;-77
2022/08/17 01:14:38;;;;;;;14.77;11.23;;;17.00;99.90;;;;;;5096400;28;20456;-77
2022/08/17 01:17:04;;;;;;;12.95;10.85;;;16.90;99.90;;;;;;5096267;28;20065;-76
2022/08/17 01:19:33;;;;;;;10.77;9.75;;;16.90;99.90;;;;;;5096299;28;20478;-76
2022/08/17 01:22:08;;;;;;;14.00;12.20;;;16.90;99.90;;;;;;5095047;28;20040;-76
2022/08/17 01:24:35;;;;;;;16.77;11.77;;;16.90;99.90;;;;;;5094827;28;20554;-77
2022/08/17 01:27:02;;;;;;;15.52;13.77;;;16.90;99.90;;;;;;5096348;28;20036;-77
2022/08/17 01:29:29;;;;;;;19.80;15.73;;;16.90;99.90;;;;;;5096068;28;20024;-77
2022/08/17 01:31:58;;;;;;;17.95;15.13;;;16.90;99.90;;;;;;5095950;28;20020;-77
2022/08/17 01:34:25;;;;;;;17.33;14.38;;;16.90;99.90;;;;;;5095922;28;20019;-77
2022/08/17 01:36:51;;;;;;;20.83;13.18;;;16.90;99.90;;;;;;5095817;28;20039;-77
2022/08/17 01:39:22;;;;;;;13.93;12.00;;;16.90;99.90;;;;;;5095917;28;20508;-77
2022/08/17 01:41:50;;;;;;;13.45;12.02;;;16.80;99.90;;;;;;5095976;28;20036;-77
2022/08/17 01:44:16;;;;;;;12.18;10.63;;;16.80;99.90;;;;;;5094592;28;20061;-77
2022/08/17 01:46:42;;;;;;;12.02;10.43;;;16.80;99.90;;;;;;5095638;28;20028;-77
2022/08/17 01:49:10;;;;;;;8.85;7.95;;;16.70;99.90;;;;;;5095446;28;20047;-77
2022/08/17 01:51:36;;;;;;;14.80;9.18;;;16.60;99.90;;;;;;5095813;28;20100;-77
2022/08/17 01:54:05;;;;;;;8.77;7.88;;;16.60;99.90;;;;;;5095531;28;20454;-77
2022/08/17 01:56:33;;;;;;;8.35;7.50;;;16.50;99.90;;;;;;5095223;28;20024;-77
2022/08/17 01:58:59;;;;;;;8.93;8.02;;;16.50;99.90;;;;;;5095411;28;20028;-77
2022/08/17 02:01:27;;;;;;;9.25;8.38;;;16.50;99.90;;;;;;5095534;28;20044;-76
2022/08/17 02:03:54;;;;;;;11.55;10.43;;;16.40;99.90;;;;;;5095597;28;20025;-77
2022/08/17 02:06:20;;;;;;;15.60;12.55;;;16.40;99.90;;;;;;5095336;28;20063;-77
2022/08/17 02:08:46;;;;;;;16.63;12.50;;;16.50;99.90;;;;;;5095203;28;20044;-77
2022/08/17 02:11:15;;;;;;;17.83;14.05;;;16.40;99.90;;;;;;5095348;28;20505;-78
2022/08/17 02:13:43;;;;;;;17.25;13.98;;;16.40;99.90;;;;;;5093948;28;20068;-77
2022/08/17 02:16:09;;;;;;;17.42;14.48;;;16.50;99.90;;;;;;5095371;28;20016;-77
2022/08/17 02:18:35;;;;;;;15.60;13.13;;;16.50;99.90;;;;;;5093875;28;20582;-77
2022/08/17 02:21:01;;;;;;;18.02;13.98;;;16.50;99.90;;;;;;5095026;28;20123;-78
2022/08/17 02:23:31;;;;;;;19.55;14.02;;;16.40;99.90;;;;;;5095104;28;20183;-77
2022/08/17 02:25:59;;;;;;;17.80;14.38;;;16.40;99.90;;;;;;5094974;28;20050;-77
2022/08/17 02:28:25;;;;;;;17.02;15.13;;;16.40;99.90;;;;;;5093603;28;20028;-78
2022/08/17 02:30:51;;;;;;;19.58;13.75;;;16.40;99.90;;;;;;5094880;28;20081;-77
2022/08/17 02:33:16;;;;;;;21.20;15.43;;;16.40;99.90;;;;;;5093738;28;20488;-78
2022/08/17 02:35:42;;;;;;;19.38;14.75;;;16.40;99.90;;;;;;5093386;28;20523;-78
2022/08/17 02:38:08;;;;;;;22.48;16.02;;;16.40;99.90;;;;;;5094813;28;20055;-77
2022/08/17 02:40:36;;;;;;;16.13;13.88;;;16.30;99.90;;;;;;5094487;28;20496;-78
2022/08/17 02:43:02;;;;;;;15.90;12.35;;;16.30;99.90;;;;;;5094673;28;20024;-77
2022/08/17 02:45:28;;;;;;;9.55;8.55;;;16.30;99.90;;;;;;5093294;28;20028;-78
2022/08/17 02:47:54;;;;;;;8.73;7.82;;;16.30;99.90;;;;;;5094401;28;20020;-78
2022/08/17 02:50:22;;;;;;;8.32;7.53;;;16.20;99.90;;;;;;5094508;28;20028;-78
2022/08/17 02:52:49;;;;;;;7.80;7.15;;;16.10;99.90;;;;;;5093118;28;20024;-77
2022/08/17 02:55:24;;;;;;;9.20;8.05;;;16.10;99.90;;;;;;5094615;28;20051;-77
2022/08/17 02:57:50;;;;;;;9.23;8.27;;;16.10;99.90;;;;;;5093230;28;20028;-78
2022/08/17 03:00:28;;;;;;;8.63;7.60;;;16.00;99.90;;;;;;5093089;28;20032;-77
2022/08/17 03:02:58;;;;;;;8.75;7.90;;;16.00;99.90;;;;;;5092427;28;20106;-78
2022/08/17 03:05:26;;;;;;;8.55;7.70;;;16.00;99.90;;;;;;5094097;28;20123;-78
2022/08/17 03:07:52;;;;;;;10.15;9.15;;;16.00;99.90;;;;;;5093054;28;20043;-77
2022/08/17 03:10:20;;;;;;;13.85;11.85;;;16.00;99.90;;;;;;5094213;28;20028;-77
2022/08/17 03:12:46;;;;;;;15.20;12.00;;;16.00;99.90;;;;;;5094069;28;20466;-78
2022/08/17 03:15:18;;;;;;;15.27;13.13;;;16.00;99.90;;;;;;5092906;28;20028;-74
2022/08/17 03:17:44;;;;;;;14.80;13.00;;;16.00;99.90;;;;;;5092713;28;20053;-74
2022/08/17 03:20:11;;;;;;;17.98;14.05;;;16.00;99.90;;;;;;5092834;28;20391;-73
2022/08/17 03:22:41;;;;;;;19.60;13.20;;;16.10;99.90;;;;;;5094005;28;20028;-77
2022/08/17 03:25:09;;;;;;;15.27;13.38;;;16.00;99.90;;;;;;5091781;28;20043;-77
2022/08/17 03:27:35;;;;;;;22.92;14.45;;;16.10;99.90;;;;;;5094106;28;20027;-77
2022/08/17 03:30:06;;;;;;;19.23;14.13;;;16.00;99.90;;;;;;5093900;28;20488;-77
2022/08/17 03:32:37;;;;;;;19.00;15.02;;;16.00;99.90;;;;;;5093720;28;20028;-75
2022/08/17 03:35:04;;;;;;;19.45;15.52;;;16.00;99.90;;;;;;5093245;28;20012;-74
2022/08/17 03:37:29;;;;;;;20.88;14.77;;;16.00;99.90;;;;;;5093225;28;20020;-75
2022/08/17 03:39:55;;;;;;;16.80;13.70;;;16.00;99.90;;;;;;5093087;28;20065;-75
2022/08/17 03:42:25;;;;;;;20.00;13.68;;;16.00;99.90;;;;;;5093151;28;20462;-75
2022/08/17 03:44:52;;;;;;;16.83;13.10;;;16.00;99.90;;;;;;5093354;28;20032;-75
2022/08/17 03:58:18;;;;;;;12.48;8.68;;;15.90;99.90;;;;;;5093781;28;20092;-75
2022/08/17 04:00:44;;;;;;;10.88;8.57;;;15.80;99.90;;;;;;5091958;28;20119;-76
2022/08/17 04:03:10;;;;;;;10.88;9.48;;;15.80;99.90;;;;;;5093245;28;20386;-75
2022/08/17 04:05:37;;;;;;;10.10;8.20;;;15.80;99.90;;;;;;5093182;28;20032;-78
2022/08/17 04:08:03;;;;;;;10.65;8.88;;;15.80;99.90;;;;;;5093314;28;20031;-77
2022/08/17 04:10:29;;;;;;;9.52;8.15;;;15.80;99.90;;;;;;5092052;28;20024;-75
2022/08/17 04:12:55;;;;;;;9.93;8.38;;;15.80;99.90;;;;;;5091623;28;20019;-75
2022/08/17 04:15:21;;;;;;;8.15;6.97;;;15.90;99.90;;;;;;5092453;28;20466;-77
2022/08/17 04:17:47;;;;;;;6.43;5.82;;;15.80;99.90;;;;;;5093241;28;20500;-77
2022/08/17 04:20:15;;;;;;;5.63;5.15;;;15.90;99.90;;;;;;5093040;28;20390;-76
2022/08/17 04:23:00;;;;;;;8.85;7.95;;;16.00;99.90;;;;;;5091911;28;20025;-77
2022/08/17 04:25:27;;;;;;;10.88;9.07;;;16.10;99.90;;;;;;5091944;28;20032;-75
2022/08/17 04:27:54;;;;;;;12.27;10.98;;;16.20;99.90;;;;;;5093122;28;20016;-77
2022/08/17 04:30:20;;;;;;;12.98;11.00;;;16.30;99.90;;;;;;5092882;28;20028;-77
2022/08/17 04:32:51;;;;;;;13.65;11.20;;;16.40;99.90;;;;;;5093066;28;20527;-76
2022/08/17 04:35:22;;;;;;;12.88;11.05;;;16.40;99.90;;;;;;5092762;28;20381;-77
2022/08/17 04:37:48;;;;;;;11.80;9.77;;;16.50;99.90;;;;;;5093150;28;20035;-76
2022/08/17 04:43:15;;;;;;;10.68;9.10;;;16.60;99.90;;;;;;5092908;28;20066;-75
2022/08/17 04:45:45;;;;;;;12.98;8.55;;;16.70;99.90;;;;;;5093039;28;20359;-77
2022/08/17 04:48:10;;;;;;;11.95;9.73;;;16.80;99.90;;;;;;5091573;28;20031;-75
2022/08/17 04:50:42;;;;;;;11.80;10.35;;;17.00;99.90;;;;;;5091593;28;20020;-75
2022/08/17 04:53:07;;;;;;;10.27;9.18;;;17.10;99.90;;;;;;5092850;28;20024;-75
2022/08/17 04:55:33;;;;;;;10.07;8.88;;;17.10;99.90;;;;;;5091609;28;20430;-75
2022/08/17 04:57:59;;;;;;;11.18;9.10;;;17.10;99.90;;;;;;5091541;28;20031;-77
2022/08/17 05:00:24;;;;;;;13.32;11.10;;;17.10;99.90;;;;;;5091377;28;20031;-76
2022/08/17 05:02:52;;;;;;;12.57;10.38;;;17.20;99.90;;;;;;5092788;28;20024;-76
2022/08/17 05:05:23;;;;;;;14.70;12.00;;;17.20;99.90;;;;;;5092754;28;20093;-77
2022/08/17 05:07:54;;;;;;;15.05;11.57;;;17.30;99.90;;;;;;5091401;28;20020;-75
2022/08/17 05:10:21;;;;;;;15.68;11.75;;;17.40;99.90;;;;;;5092840;28;20024;-75
2022/08/17 05:12:55;;;;;;;13.88;12.38;;;17.50;99.90;;;;;;5092608;28;20103;-75
2022/08/17 05:15:21;;;;;;;17.60;12.02;;;17.60;99.90;;;;;;5092604;28;20028;-77
2022/08/17 05:17:46;;;;;;;17.35;13.20;;;17.80;99.90;;;;;;5091457;28;20500;-76
2022/08/17 05:20:12;;;;;;;15.98;13.75;;;17.80;99.90;;;;;;5091465;28;20024;-76
2022/08/17 05:22:48;;;;;;;18.05;13.38;;;17.90;99.90;;;;;;5092696;28;20032;-76
2022/08/17 05:25:14;;;;;;;19.75;16.30;;;18.00;99.90;;;;;;5092612;28;20031;-76
2022/08/17 05:27:40;;;;;;;21.55;16.05;;;18.10;99.90;;;;;;5094991;28;20024;-75
2022/08/17 05:30:06;;;;;;;22.77;16.58;;;18.30;99.90;;;;;;5096304;28;20016;-76
2022/08/17 05:32:32;;;;;;;24.23;17.92;;;18.40;99.90;;;;;;5096142;28;20039;-75
2022/08/17 05:35:00;;;;;;;30.65;22.48;;;18.60;99.90;;;;;;5094829;28;20020;-76
2022/08/17 05:37:26;;;;;;;28.83;22.30;;;18.70;99.90;;;;;;5096011;28;20470;-76
2022/08/17 05:39:52;;;;;;;32.65;22.98;;;18.80;99.90;;;;;;5096327;28;20106;-76
2022/08/17 05:42:18;;;;;;;30.27;23.77;;;19.00;99.90;;;;;;5095726;28;20501;-76
2022/08/17 05:44:44;;;;;;;31.80;22.17;;;19.10;99.90;;;;;;5093027;28;20012;-76
2022/08/17 05:47:10;;;;;;;39.80;26.90;;;19.30;99.90;;;;;;5093611;28;20032;-76
2022/08/17 05:49:35;;;;;;;38.15;27.00;;;19.40;99.90;;;;;;5093908;28;20044;-76
2022/08/17 05:52:10;;;;;;;37.70;26.77;;;19.50;99.90;;;;;;5093794;28;20036;-76
2022/08/17 05:55:05;;;;;;;36.20;26.60;;;19.70;99.90;;;;;;5093668;28;20024;-77
2022/08/17 05:57:55;;;;;;;36.45;26.67;;;19.80;99.90;;;;;;5088579;28;20051;-76
2022/08/17 06:00:25;;;;;;;38.72;28.42;;;19.90;99.90;;;;;;5095675;28;20175;-76
2022/08/17 06:03:03;;;;;;;37.50;27.85;;;20.10;99.90;;;;;;5095641;28;20125;-76
2022/08/17 06:05:34;;;;;;;38.90;27.45;;;20.20;99.90;;;;;;5095424;28;20024;-77
2022/08/17 06:08:23;;;;;;;40.22;25.27;;;20.30;99.90;;;;;;5095687;28;20024;-76
2022/08/17 06:10:55;;;;;;;33.65;24.95;;;20.50;99.90;;;;;;5095546;28;20030;-76
2022/08/17 06:13:56;;;;;;;40.92;28.45;;;20.50;99.90;;;;;;5093991;28;20073;-76
2022/08/17 06:16:27;;;;;;;34.22;26.02;;;20.80;99.90;;;;;;5053044;28;20040;-76
2022/08/17 06:18:58;;;;;;;33.58;25.75;;;21.00;99.90;;;;;;5083469;28;20115;-76
2022/08/17 06:21:25;;;;;;;41.22;27.73;;;21.20;99.90;;;;;;5095316;28;20124;-76
2022/08/17 06:23:58;;;;;;;38.28;26.75;;;21.30;99.90;;;;;;5095219;28;20082;-76
2022/08/17 06:26:31;;;;;;;34.80;27.50;;;21.50;99.90;;;;;;5095120;28;20017;-76
2022/08/17 06:29:03;;;;;;;36.28;28.25;;;21.70;99.90;;;;;;5094880;28;20458;-77
2022/08/17 06:31:34;;;;;;;;;;;21.80;99.90;;;;;;5095479;28;20116;-78
2022/08/17 06:34:02;;;;;;;31.27;23.00;;;22.00;99.90;;;;;;5094815;28;19950;-77
2022/08/17 06:37:00;;;;;;;35.50;26.25;;;22.20;99.90;;;;;;5092344;28;20050;-77
2022/08/17 06:39:54;;;;;;;32.95;24.90;;;22.40;99.90;;;;;;5093246;28;20119;-78
2022/08/17 06:42:25;;;;;;;35.58;26.17;;;22.60;99.90;;;;;;5086597;28;20031;-78
2022/08/17 06:45:07;;;;;;;34.37;25.97;;;22.80;99.90;;;;;;5088848;28;20024;-78
2022/08/17 06:47:39;;;;;;;38.00;26.57;;;22.90;99.90;;;;;;5094277;28;20055;-78
2022/08/17 06:50:41;;;;;;;32.70;24.80;;;23.00;99.90;;;;;;5092958;28;20125;-77
2022/08/17 06:53:31;;;;;;;27.43;22.20;;;23.20;99.90;;;;;;5085380;28;20020;-79
2022/08/17 06:56:10;;;;;;;27.75;23.83;;;23.40;99.90;;;;;;5094494;28;20028;-77
2022/08/17 06:58:40;;;;;;;36.42;24.98;;;23.50;99.90;;;;;;5091942;28;20020;-81
2022/08/17 07:01:23;;;;;;;29.70;23.58;;;23.70;99.90;;;;;;5078619;28;20114;-80
2022/08/17 07:03:56;;;;;;;26.35;20.92;;;23.70;99.90;;;;;;5091518;28;20119;-76
2022/08/17 07:06:28;;;;;;;30.02;22.58;;;23.80;99.90;;;;;;5092362;28;20063;-76
2022/08/17 07:09:23;;;;;;;25.92;21.52;;;24.00;99.90;;;;;;5094051;28;20031;-77
2022/08/17 07:11:53;;;;;;;25.40;21.30;;;24.10;99.90;;;;;;5082779;28;20504;-77
2022/08/17 07:14:56;;;;;;;21.70;18.02;;;24.30;99.90;;;;;;5094246;28;20086;-79
2022/08/17 07:17:23;;;;;;;24.73;19.85;;;24.50;99.90;;;;;;5090881;28;20024;-76
2022/08/17 07:19:51;;;;;;;21.60;17.65;;;24.60;99.90;;;;;;5092750;28;20016;-77
2022/08/17 07:22:53;;;;;;;24.23;17.60;;;24.70;99.90;;;;;;5083392;28;20044;-79
2022/08/17 07:25:20;;;;;;;19.50;16.40;;;24.90;99.90;;;;;;5085709;28;20508;-79
2022/08/17 07:27:55;;;;;;;20.80;16.60;;;25.00;99.90;;;;;;5078038;28;20493;-78
2022/08/17 07:30:47;;;;;;;22.20;16.83;;;25.10;99.90;;;;;;5092874;28;20077;-78
2022/08/17 07:33:22;;;;;;;20.08;17.40;;;25.30;99.90;;;;;;5091067;28;20048;-78
2022/08/17 07:35:48;;;;;;;19.63;16.02;;;25.30;99.90;;;;;;5092411;28;20024;-77
2022/08/17 07:38:21;;;;;;;20.15;16.83;;;25.30;99.90;;;;;;5092633;28;20485;-77
2022/08/17 07:40:56;;;;;;;23.55;17.67;;;25.50;99.90;;;;;;5078481;28;20063;-78
2022/08/17 07:43:26;;;;;;;25.23;17.67;;;25.60;99.90;;;;;;5092267;28;20035;-77
2022/08/17 07:48:54;;;;;;;21.38;16.60;;;25.60;99.90;;;;;;5093234;28;20063;-77
2022/08/17 07:51:26;;;;;;;21.52;16.38;;;25.70;99.90;;;;;;5093510;28;20012;-78
2022/08/17 07:53:56;;;;;;;22.73;17.33;;;25.80;99.90;;;;;;5092722;28;20020;-77
2022/08/17 07:56:35;;;;;;;19.85;15.68;;;25.70;99.90;;;;;;5087868;28;20527;-78
2022/08/17 07:59:14;;;;;;;24.08;16.42;;;25.90;99.90;;;;;;5073110;28;20026;-78
2022/08/17 08:01:43;;;;;;;22.92;16.30;;;25.90;99.90;;;;;;5073174;28;20445;-78
2022/08/17 08:04:24;;;;;;;24.48;17.00;;;26.00;99.90;;;;;;5088457;28;20035;-77
2022/08/17 08:06:53;;;;;;;24.33;17.92;;;25.90;99.90;;;;;;5072991;28;20033;-75
2022/08/17 08:09:41;;;;;;;21.85;16.73;;;26.00;99.90;;;;;;5073049;28;20021;-77
2022/08/17 08:12:25;;;;;;;22.27;16.55;;;26.30;99.90;;;;;;5088185;28;20016;-77
2022/08/17 08:14:57;;;;;;;19.10;16.63;;;26.30;98.90;;;;;;5090118;28;20028;-77
2022/08/17 08:17:35;;;;;;;20.95;15.63;;;26.40;98.10;;;;;;5086633;28;20144;-77
2022/08/17 08:20:09;;;;;;;20.55;14.20;;;26.60;96.50;;;;;;5089430;28;20031;-77
2022/08/17 08:23:04;;;;;;;19.95;14.48;;;26.80;90.00;;;;;;5071733;28;20068;-78
2022/08/17 08:26:07;;;;;;;23.85;14.68;;;26.90;90.20;;;;;;5061294;28;20032;-78
2022/08/17 08:28:59;;;;;;;19.90;14.95;;;27.10;86.50;;;;;;5071455;28;20017;-77
2022/08/17 08:31:45;;;;;;;19.27;14.00;;;27.20;86.00;;;;;;5066490;28;20031;-79
2022/08/17 08:34:44;;;;;;;20.05;13.75;;;27.40;88.30;;;;;;5092653;28;20020;-79
2022/08/17 08:37:26;;;;;;;17.30;13.35;;;27.20;86.40;;;;;;5091122;28;20054;-79
2022/08/17 08:40:24;;;;;;;19.63;14.23;;;27.50;87.50;;;;;;5091087;28;20032;-79
2022/08/17 08:43:09;;;;;;;16.60;13.98;;;27.70;83.00;;;;;;5090697;28;20024;-79
2022/08/17 08:45:56;;;;;;;14.18;12.77;;;27.60;83.50;;;;;;5091433;28;20039;-79
2022/08/17 08:48:22;;;;;;;13.98;12.27;;;27.50;82.20;;;;;;5091404;28;20048;-79
2022/08/17 08:51:14;;;;;;;12.43;11.18;;;27.70;80.20;;;;;;5091896;28;20036;-78
2022/08/17 08:53:40;;;;;;;23.15;12.90;;;27.70;76.60;;;;;;5090917;28;20021;-78
2022/08/17 08:56:17;;;;;;;16.63;11.68;;;27.40;75.60;;;;;;5091217;28;20055;-78
2022/08/17 08:59:24;;;;;;;16.80;11.88;;;27.20;75.60;;;;;;5091523;28;20016;-78
2022/08/17 09:01:56;;;;;;;23.38;12.55;;;27.50;78.60;;;;;;5095095;28;20409;-78
2022/08/17 09:04:45;;;;;;;17.92;12.75;;;27.40;78.30;;;;;;5095535;28;20276;-78
2022/08/17 09:07:17;;;;;;;21.42;12.90;;;27.30;78.10;;;;;;5096580;28;20493;-78
2022/08/17 09:09:53;;;;;;;15.60;11.88;;;27.40;78.10;;;;;;5095401;28;20087;-78
2022/08/17 09:12:40;;;;;;;18.85;11.82;;;27.30;78.40;;;;;;5096644;28;20027;-78
2022/08/17 09:15:18;;;;;;;15.88;12.25;;;27.30;76.40;;;;;;5095188;28;20099;-78
2022/08/17 09:18:10;;;;;;;16.75;12.07;;;27.50;75.70;;;;;;5091043;28;20032;-78
2022/08/17 09:20:52;;;;;;;14.13;11.70;;;27.70;72.10;;;;;;5091764;28;20028;-76
2022/08/17 09:23:44;;;;;;;16.90;11.88;;;28.00;72.00;;;;;;5096172;28;20044;-77
2022/08/17 09:26:12;;;;;;;21.48;12.57;;;28.00;74.30;;;;;;5094647;28;20477;-76
2022/08/17 09:28:45;;;;;;;16.10;12.55;;;28.00;75.90;;;;;;5095928;28;20492;-76
2022/08/17 09:31:17;;;;;;;18.75;11.80;;;27.80;75.20;;;;;;5096027;28;20043;-77
2022/08/17 09:33:45;;;;;;;18.60;11.05;;;27.80;73.40;;;;;;5094613;28;20020;-76
2022/08/17 09:36:33;;;;;;;12.23;10.02;;;27.70;71.00;;;;;;5094011;28;20020;-77
2022/08/17 09:39:01;;;;;;;15.02;9.02;;;27.70;66.00;;;;;;5094567;28;20081;-77
2022/08/17 09:41:54;;;;;;;12.27;10.98;;;28.00;67.40;;;;;;5080609;28;20043;-77
2022/08/17 09:44:19;;;;;;;14.10;11.07;;;28.30;67.20;;;;;;5096054;28;20474;-80
2022/08/17 09:46:53;;;;;;;12.48;10.93;;;28.50;67.20;;;;;;5095572;28;20070;-75
2022/08/17 09:49:26;;;;;;;17.20;12.55;;;28.50;67.20;;;;;;5095774;28;20097;-75
2022/08/17 09:52:06;;;;;;;16.92;12.63;;;28.20;71.20;;;;;;5094845;28;20097;-74
2022/08/17 09:54:36;;;;;;;16.48;12.73;;;27.80;74.30;;;;;;5094290;28;20024;-74
2022/08/17 09:57:39;;;;;;;15.80;12.90;;;27.70;77.20;;;;;;5095396;28;20514;-77
2022/08/17 10:00:12;;;;;;;18.30;11.63;;;27.90;74.70;;;;;;5095394;28;20031;-75
2022/08/17 10:02:49;;;;;;;12.50;10.10;;;28.10;72.20;;;;;;5095424;28;20386;-74
2022/08/17 10:05:51;;;;;;;18.27;11.23;;;28.00;64.20;;;;;;5094246;28;20111;-74
2022/08/17 10:08:37;;;;;;;13.38;10.27;;;28.30;64.40;;;;;;5025389;28;20061;-79
2022/08/17 10:12:14;;;;;;;13.20;10.48;;;28.60;65.70;;;;;;5087656;28;20036;-75
2022/08/17 10:14:36;;;;;;;14.52;11.00;;;28.50;64.00;;;;;;5095058;28;20031;-78
2022/08/17 10:17:07;;;;;;;13.05;11.73;;;28.30;64.60;;;;;;5093660;28;20122;-79
2022/08/17 10:19:52;;;;;;;15.85;11.40;;;28.30;65.00;;;;;;5095114;28;20074;-79
2022/08/17 10:28:04;;;;;;;17.25;11.18;;;28.50;64.40;;;;;;5094843;28;20035;-81
2022/08/17 10:30:33;;;;;;;15.88;11.35;;;28.60;65.30;;;;;;5093403;28;20470;-80
2022/08/17 10:33:03;;;;;;;11.45;9.93;;;28.40;64.90;;;;;;5094749;28;20024;-80
2022/08/17 10:35:47;;;;;;;16.27;10.38;;;28.30;64.10;;;;;;5094173;28;20452;-79
2022/08/17 10:38:29;;;;;;;14.20;10.00;;;28.40;63.00;;;;;;5093429;28;20035;-79
2022/08/17 10:40:59;;;;;;;12.93;11.55;;;28.60;62.10;;;;;;5094562;28;20370;-78
2022/08/17 10:43:35;;;;;;;15.10;10.85;;;28.50;63.10;;;;;;5094634;28;20488;-79
2022/08/17 10:46:16;;;;;;;18.38;10.90;;;28.50;63.60;;;;;;5093100;28;20193;-80
2022/08/17 10:48:42;;;;;;;14.00;11.95;;;28.40;62.00;;;;;;5092877;28;20055;-80
2022/08/17 10:51:11;;;;;;;11.65;9.88;;;28.30;64.10;;;;;;5092398;28;20576;-79
2022/08/17 10:53:48;;;;;;;12.57;9.77;;;28.10;64.30;;;;;;5082738;28;20054;-80
2022/08/17 10:56:17;;;;;;;14.27;10.07;;;28.00;64.50;;;;;;5088927;28;20094;-80
2022/08/17 10:58:59;;;;;;;16.75;11.93;;;28.00;63.50;;;;;;5092363;28;20400;-79
2022/08/17 11:02:02;;;;;;;12.60;10.15;;;28.40;62.90;;;;;;5091791;28;20408;-80
2022/08/17 11:04:48;;;;;;;11.23;10.10;;;28.50;62.40;;;;;;5092848;28;20044;-80
2022/08/17 11:07:42;;;;;;;10.45;9.32;;;28.90;60.50;;;;;;5093891;28;20031;-80
2022/08/17 11:10:45;;;;;;;12.75;10.75;;;29.20;60.00;;;;;;5093896;28;20473;-79
2022/08/17 11:13:23;;;;;;;11.70;9.90;;;28.90;60.00;;;;;;5093878;28;20024;-78
2022/08/17 11:16:26;;;;;;;12.57;9.57;;;28.60;59.40;;;;;;5075857;28;20051;-78
2022/08/17 11:19:33;;;;;;;10.75;9.70;;;28.70;57.50;;;;;;5084844;28;20081;-79
2022/08/17 11:22:25;;;;;;;10.60;9.10;;;28.90;57.60;;;;;;5076083;28;20040;-79
2022/08/17 11:24:53;;;;;;;10.93;9.40;;;29.00;57.30;;;;;;5093685;28;20521;-79
2022/08/17 11:27:22;;;;;;;11.63;8.95;;;29.00;57.70;;;;;;5093425;28;20020;-78
2022/08/17 11:30:05;;;;;;;15.07;9.32;;;29.10;58.70;;;;;;5093771;28;20048;-78
2022/08/17 11:32:42;;;;;;;11.25;9.40;;;29.20;58.50;;;;;;5092079;28;20052;-78
2022/08/17 11:35:19;;;;;;;13.23;9.57;;;29.20;58.00;;;;;;5093125;28;20093;-78
2022/08/17 11:38:14;;;;;;;15.00;9.90;;;29.30;58.00;;;;;;5093256;28;20024;-79
2022/08/17 11:40:58;;;;;;;13.10;9.35;;;29.30;57.20;;;;;;5087984;28;20032;-79
2022/08/17 11:43:54;;;;;;;9.95;8.93;;;29.40;56.20;;;;;;5093487;28;20016;-75
2022/08/17 11:46:23;;;;;;;10.40;8.88;;;29.50;55.50;;;;;;5093344;28;20019;-79
2022/08/17 11:52:10;;;;;;;11.13;9.18;;;29.60;56.70;;;;;;5093827;28;20039;-79
2022/08/17 11:54:41;;;;;;;11.80;9.25;;;29.70;55.20;;;;;;5087253;28;20102;-79
2022/08/17 11:57:25;;;;;;;10.50;9.50;;;29.80;54.90;;;;;;5086743;28;20777;-78
2022/08/17 11:59:53;;;;;;;11.30;9.60;;;29.70;53.40;;;;;;5078194;28;20055;-78
2022/08/17 12:02:31;;;;;;;10.80;9.70;;;29.20;55.20;;;;;;5088725;28;20032;-77
2022/08/17 12:05:24;;;;;;;11.60;9.93;;;28.90;56.70;;;;;;5089096;28;20028;-77
2022/08/17 12:08:09;;;;;;;13.27;10.10;;;29.00;57.40;;;;;;5076091;28;20028;-78
2022/08/17 12:10:51;;;;;;;10.02;9.15;;;29.30;57.20;;;;;;5089715;28;24643;-77
2022/08/17 12:13:18;;;;;;;13.18;9.68;;;29.50;57.30;;;;;;5089286;28;20040;-78
2022/08/17 12:15:48;;;;;;;11.70;10.00;;;29.30;54.90;;;;;;5091974;28;20032;-79
2022/08/17 12:18:30;;;;;;;12.15;10.95;;;29.20;55.40;;;;;;5091461;28;20429;-79
2022/08/17 12:21:18;;;;;;;12.05;10.88;;;28.70;55.40;;;;;;5090234;28;20028;-76
2022/08/17 12:24:08;;;;;;;11.68;10.48;;;28.70;56.50;;;;;;5091825;28;20032;-75
2022/08/17 12:26:35;;;;;;;12.75;10.90;;;28.80;57.40;;;;;;5090817;28;20069;-76
2022/08/17 12:29:11;;;;;;;15.02;11.23;;;28.90;56.60;;;;;;5090514;28;20402;-76
2022/08/17 12:31:46;;;;;;;16.05;10.77;;;29.00;57.20;;;;;;5090528;28;20477;-77
2022/08/17 12:34:19;;;;;;;13.25;11.93;;;29.20;57.20;;;;;;5091761;28;20024;-77
2022/08/17 12:36:49;;;;;;;12.65;11.45;;;29.40;56.80;;;;;;5095226;28;20024;-78
2022/08/17 12:39:21;;;;;;;13.35;11.90;;;29.80;56.20;;;;;;5096150;28;20028;-78
2022/08/17 12:41:49;;;;;;;18.35;13.13;;;29.90;55.50;;;;;;5095692;28;20520;-78
2022/08/17 12:44:27;;;;;;;14.07;12.65;;;29.70;55.70;;;;;;5094652;28;20062;-76
2022/08/17 12:46:59;;;;;;;18.58;13.35;;;29.90;55.40;;;;;;5095505;28;20056;-76
2022/08/17 12:49:38;;;;;;;17.88;13.57;;;29.90;56.10;;;;;;5090979;28;20094;-76
2022/08/17 12:52:18;;;;;;;15.73;14.15;;;29.50;56.80;;;;;;5095063;28;20067;-76
2022/08/17 12:55:16;;;;;;;19.40;14.07;;;29.20;57.50;;;;;;5093765;28;20073;-76
2022/08/17 12:57:46;;;;;;;14.65;13.30;;;29.10;56.80;;;;;;5084983;28;20036;-76
2022/08/17 13:00:20;;;;;;;15.95;14.18;;;29.40;56.90;;;;;;5095665;28;20024;-76
2022/08/17 13:02:50;;;;;;;16.20;14.57;;;29.80;55.70;;;;;;5095460;28;20429;-76
2022/08/17 13:05:38;;;;;;;15.95;14.25;;;29.90;54.40;;;;;;5081174;28;20489;-76
2022/08/17 13:08:35;;;;;;;15.98;14.25;;;30.20;54.50;;;;;;5095498;28;20078;-76
2022/08/17 13:11:17;;;;;;;17.08;15.48;;;30.40;54.00;;;;;;5094969;28;20044;-76
2022/08/17 13:13:50;;;;;;;16.42;14.82;;;30.50;53.60;;;;;;5092674;28;20036;-76
2022/08/17 13:16:29;;;;;;;16.92;15.30;;;30.00;55.50;;;;;;5077574;28;20016;-77
2022/08/17 13:19:14;;;;;;;16.90;14.07;;;30.20;56.60;;;;;;5094117;28;20046;-74
2022/08/17 13:21:46;;;;;;;18.48;15.88;;;29.90;56.00;;;;;;5094072;28;20405;-74
2022/08/17 13:24:16;;;;;;;17.00;15.27;;;29.50;55.30;;;;;;5093522;28;20116;-73
2022/08/17 13:26:50;;;;;;;18.05;16.15;;;29.00;58.70;;;;;;5093599;28;20099;-75
2022/08/17 13:29:22;;;;;;;18.30;16.10;;;28.80;58.90;;;;;;5093371;28;20028;-74
2022/08/17 13:31:51;;;;;;;18.33;16.42;;;28.70;59.60;;;;;;5085313;28;20020;-75